createdAt,value
2017-12-05T00:02:00.025Z,17.05
2017-12-05T00:04:28.447Z,16.58
2017-12-05T00:06:55.923Z,17.25
2017-12-05T00:09:24.503Z,17.25
2017-12-05T00:11:51.975Z,16.35
2017-12-05T00:14:19.483Z,16.98
2017-12-05T00:16:46.948Z,16.45
2017-12-05T00:19:15.193Z,16.62
2017-12-05T00:31:23.657Z,14.52
2017-12-05T00:33:55.380Z,17.37
2017-12-05T00:36:23.637Z,16.60
2017-12-05T00:38:52.252Z,15.80
2017-12-05T00:41:19.754Z,16.00
2017-12-05T00:56:37.512Z,14.43
2017-12-05T00:59:09.045Z,16.67
2017-12-05T01:14:27.291Z,15.05
2017-12-05T01:16:54.764Z,16.62
2017-12-05T01:19:22.984Z,17.23
2017-12-05T01:21:54.511Z,17.73
2017-12-05T01:24:23.020Z,17.10
2017-12-05T01:36:31.304Z,15.73
2017-12-05T01:38:58.775Z,18.15
2017-12-05T01:41:27.169Z,17.58
2017-12-05T01:43:54.632Z,15.85
2017-12-05T01:46:22.123Z,15.90
2017-12-05T01:48:49.624Z,17.42
2017-12-05T01:51:17.449Z,17.12
2017-12-05T02:06:35.659Z,15.57
2017-12-05T02:09:03.220Z,15.63
2017-12-05T02:21:10.668Z,17.48
2017-12-05T02:23:38.178Z,17.70
2017-12-05T02:26:06.444Z,18.42
2017-12-05T02:28:35.164Z,18.00
2017-12-05T02:31:10.609Z,17.23
2017-12-05T02:33:38.891Z,16.73
2017-12-05T02:36:07.426Z,16.87
2017-12-05T02:38:34.882Z,18.05
2017-12-05T02:41:10.047Z,18.00
2017-12-05T02:43:38.055Z,18.30
2017-12-05T02:46:06.406Z,16.10
2017-12-05T02:48:34.752Z,17.85
2017-12-05T02:51:02.236Z,16.40
2017-12-05T02:53:29.740Z,17.77
2017-12-05T02:56:01.250Z,16.83
2017-12-05T02:58:29.131Z,17.00
2017-12-05T03:10:37.382Z,15.55
2017-12-05T03:13:05.324Z,16.75
2017-12-05T03:15:36.616Z,16.12
2017-12-05T03:18:04.080Z,17.83
2017-12-05T03:20:32.495Z,17.40
2017-12-05T03:32:39.991Z,16.90
2017-12-05T03:35:20.239Z,18.10
2017-12-05T03:37:52.156Z,18.40
2017-12-05T03:40:20.748Z,18.58
2017-12-05T03:52:29.472Z,16.83
2017-12-05T03:54:57.538Z,17.50
2017-12-05T04:07:04.983Z,17.73
2017-12-05T04:09:33.668Z,17.05
2017-12-05T04:12:02.327Z,17.25
2017-12-05T04:24:09.795Z,16.42
2017-12-05T04:36:17.261Z,16.92
2017-12-05T04:38:44.973Z,16.20
2017-12-05T04:54:02.591Z,16.95
2017-12-05T04:56:30.071Z,14.25
2017-12-05T04:58:57.512Z,17.15
2017-12-05T05:01:25.742Z,17.05
2017-12-05T05:03:57.186Z,16.70
2017-12-05T05:16:12.515Z,17.48
2017-12-05T05:18:40.049Z,17.73
2017-12-05T05:21:07.497Z,16.10
2017-12-05T05:23:35.225Z,17.75
2017-12-05T05:26:03.940Z,17.50
2017-12-05T05:28:31.395Z,18.90
2017-12-05T05:40:39.920Z,18.08
2017-12-05T05:43:07.430Z,17.48
2017-12-05T05:45:35.377Z,16.92
2017-12-05T05:48:02.867Z,18.73
2017-12-05T05:50:35.477Z,18.25
2017-12-05T05:53:03.007Z,17.65
2017-12-05T05:55:30.479Z,19.48
2017-12-05T05:57:58.531Z,19.95
2017-12-05T06:00:29.856Z,17.90
2017-12-05T06:02:57.339Z,16.92
2017-12-05T06:05:24.904Z,17.92
2017-12-05T06:17:32.591Z,18.35
2017-12-05T06:20:00.061Z,20.77
2017-12-05T06:22:28.648Z,20.37
2017-12-05T06:34:37.145Z,17.67
2017-12-05T06:37:05.400Z,17.27
2017-12-05T06:39:33.379Z,18.00
2017-12-05T06:42:01.637Z,19.20
2017-12-05T06:44:29.321Z,18.52
2017-12-05T06:46:59.216Z,18.23
2017-12-05T06:49:28.048Z,18.02
2017-12-05T07:04:46.628Z,14.45
2017-12-05T07:07:14.137Z,17.50
2017-12-05T07:19:22.583Z,15.38
2017-12-05T07:31:30.781Z,13.82
2017-12-05T07:46:48.305Z,13.73
2017-12-05T07:49:15.787Z,13.80
2017-12-05T07:51:43.265Z,15.60
2017-12-05T07:54:11.583Z,14.65
2017-12-05T07:56:39.109Z,14.55
2017-12-05T07:59:15.360Z,13.02
2017-12-05T08:01:43.169Z,12.27
2017-12-05T08:04:11.906Z,13.70
2017-12-05T08:06:39.692Z,13.93
2017-12-05T08:09:07.173Z,11.65
2017-12-05T08:21:14.640Z,13.18
2017-12-05T08:23:42.112Z,12.18
2017-12-05T08:35:52.434Z,10.90
2017-12-05T08:38:20.804Z,11.98
2017-12-05T08:40:48.505Z,11.50
2017-12-05T08:52:56.200Z,9.75
2017-12-05T09:05:04.886Z,10.02
2017-12-05T09:20:22.344Z,10.63
2017-12-05T09:22:50.016Z,8.80
2017-12-05T09:25:17.539Z,8.55
2017-12-05T09:27:45.848Z,10.20
2017-12-05T09:30:14.155Z,10.02
2017-12-05T09:45:32.261Z,10.00
2017-12-05T09:57:39.761Z,9.23
2017-12-05T10:00:08.656Z,9.63
2017-12-05T10:02:36.115Z,10.27
2017-12-05T10:05:03.578Z,10.23
2017-12-05T10:20:21.425Z,8.80
2017-12-05T10:22:49.662Z,8.60
2017-12-05T10:38:08.103Z,9.13
2017-12-05T10:40:39.931Z,8.93
2017-12-05T10:43:08.149Z,8.27
2017-12-05T10:45:35.944Z,9.85
2017-12-05T10:48:04.101Z,10.10
2017-12-05T10:50:31.631Z,8.93
2017-12-05T10:53:01.302Z,9.82
2017-12-05T11:05:08.783Z,10.68
2017-12-05T11:07:37.417Z,10.80
2017-12-05T11:10:05.123Z,11.32
2017-12-05T11:12:36.292Z,10.88
2017-12-05T11:15:03.772Z,10.75
2017-12-05T11:17:31.220Z,10.70
2017-12-05T11:19:59.471Z,12.30
2017-12-05T11:22:27.527Z,9.90
2017-12-05T11:24:54.987Z,10.40
2017-12-05T11:27:23.877Z,10.15
2017-12-05T11:29:52.179Z,10.27
2017-12-05T11:32:21.767Z,11.02
2017-12-05T11:34:49.708Z,9.95
2017-12-05T11:37:17.520Z,9.65
2017-12-05T11:39:45.195Z,11.15
2017-12-05T11:42:14.078Z,11.07
2017-12-05T11:44:42.622Z,10.32
2017-12-05T11:56:50.622Z,10.15
2017-12-05T11:59:18.166Z,10.57
2017-12-05T12:01:46.598Z,9.32
2017-12-05T12:13:54.530Z,9.00
2017-12-05T12:16:26.764Z,9.88
2017-12-05T12:18:54.255Z,10.35
2017-12-05T12:21:21.720Z,9.15
2017-12-05T12:23:49.181Z,9.80
2017-12-05T12:26:16.850Z,10.13
2017-12-05T12:28:45.544Z,10.57
2017-12-05T12:31:13.030Z,11.07
2017-12-05T12:33:41.309Z,10.80
2017-12-05T12:48:58.780Z,9.75
2017-12-05T13:04:16.267Z,9.98
2017-12-05T13:06:43.781Z,9.23
2017-12-05T13:09:11.546Z,9.68
2017-12-05T13:11:43.056Z,10.60
2017-12-05T13:14:12.116Z,10.43
2017-12-05T13:16:44.148Z,8.32
2017-12-05T13:19:12.310Z,10.40
2017-12-05T13:21:39.783Z,9.10
2017-12-05T13:33:48.006Z,9.07
2017-12-05T13:36:16.660Z,9.48
2017-12-05T13:38:44.911Z,9.13
2017-12-05T13:41:12.381Z,10.02
2017-12-05T13:43:40.092Z,8.90
2017-12-05T13:46:07.551Z,9.15
2017-12-05T13:48:35.436Z,10.13
2017-12-05T13:51:03.279Z,10.07
2017-12-05T13:53:30.764Z,9.30
2017-12-05T13:55:58.517Z,9.48
2017-12-05T13:58:25.955Z,9.73
2017-12-05T14:00:53.436Z,9.57
2017-12-05T14:03:20.876Z,9.30
2017-12-05T14:05:48.340Z,8.93
2017-12-05T14:08:15.831Z,9.18
2017-12-05T14:10:43.275Z,10.60
2017-12-05T14:13:10.740Z,9.32
2017-12-05T14:15:38.184Z,10.30
2017-12-05T14:18:05.715Z,9.88
2017-12-05T14:20:33.231Z,10.07
2017-12-05T14:23:00.652Z,10.32
2017-12-05T14:25:28.081Z,9.82
2017-12-05T14:27:55.579Z,10.02
2017-12-05T14:30:23.032Z,11.20
2017-12-05T14:32:50.492Z,10.80
2017-12-05T14:35:17.972Z,11.48
2017-12-05T14:37:45.415Z,12.00
2017-12-05T14:40:12.884Z,10.52
2017-12-05T14:42:40.344Z,11.23
2017-12-05T14:45:07.861Z,9.32
2017-12-05T14:47:36.283Z,10.25
2017-12-05T14:50:03.758Z,9.45
2017-12-05T14:52:31.332Z,10.40
2017-12-05T14:54:58.872Z,10.35
2017-12-05T14:57:26.364Z,9.77
2017-12-05T14:59:53.843Z,9.70
2017-12-05T15:02:21.375Z,9.77
2017-12-05T15:04:48.815Z,10.35
2017-12-05T15:07:16.270Z,10.25
2017-12-05T15:09:44.580Z,11.85
2017-12-05T15:12:12.043Z,10.25
2017-12-05T15:14:39.605Z,10.07
2017-12-05T15:17:07.066Z,11.12
2017-12-05T15:19:35.105Z,10.70
2017-12-05T15:22:03.448Z,10.55
2017-12-05T15:24:30.939Z,11.55
2017-12-05T15:26:58.428Z,11.43
2017-12-05T15:29:25.898Z,10.35
2017-12-05T15:31:53.415Z,11.00
2017-12-05T15:34:21.736Z,10.93
2017-12-05T15:36:49.184Z,12.00
2017-12-05T15:39:17.424Z,10.25
2017-12-05T15:41:44.900Z,10.20
2017-12-05T15:44:12.324Z,11.25
2017-12-05T15:46:40.569Z,11.18
2017-12-05T15:49:08.451Z,11.55
2017-12-05T15:51:35.912Z,10.43
2017-12-05T15:54:03.432Z,12.55
2017-12-05T15:56:30.891Z,11.35
2017-12-05T15:58:58.344Z,10.75
2017-12-05T16:01:25.942Z,12.05
2017-12-05T16:03:54.020Z,10.82
2017-12-05T16:06:21.518Z,12.13
2017-12-05T16:08:49.055Z,13.57
2017-12-05T16:11:16.532Z,11.82
2017-12-05T16:13:43.995Z,11.98
2017-12-05T16:16:11.459Z,12.68
2017-12-05T16:18:39.056Z,12.93
2017-12-05T16:21:06.533Z,13.45
2017-12-05T16:23:33.986Z,13.68
2017-12-05T16:26:01.462Z,13.10
2017-12-05T16:28:28.977Z,13.82
2017-12-05T16:30:56.454Z,13.00
2017-12-05T16:33:23.969Z,14.07
2017-12-05T16:35:52.283Z,14.35
2017-12-05T16:38:19.729Z,13.30
2017-12-05T16:40:47.191Z,13.75
2017-12-05T16:43:14.680Z,14.35
2017-12-05T16:45:42.172Z,15.68
2017-12-05T16:48:10.407Z,13.13
2017-12-05T16:50:37.954Z,14.20
2017-12-05T16:53:05.451Z,14.15
2017-12-05T16:55:32.886Z,13.25
2017-12-05T16:58:01.724Z,13.50
2017-12-05T17:00:29.275Z,14.20
2017-12-05T17:02:57.491Z,15.30
2017-12-05T17:05:25.737Z,13.77
2017-12-05T17:07:53.192Z,16.35
2017-12-05T17:10:20.652Z,14.63
2017-12-05T17:12:48.186Z,15.00
2017-12-05T17:15:16.424Z,15.10
2017-12-05T17:17:44.407Z,14.63
2017-12-05T17:20:12.652Z,14.30
2017-12-05T17:22:40.916Z,13.70
2017-12-05T17:25:08.528Z,15.75
2017-12-05T17:27:36.747Z,16.30
2017-12-05T17:30:04.211Z,13.07
2017-12-05T17:32:32.247Z,14.85
2017-12-05T17:34:59.693Z,16.55
2017-12-05T17:37:27.167Z,15.43
2017-12-05T17:39:54.628Z,14.30
2017-12-05T17:42:22.166Z,14.38
2017-12-05T17:44:49.623Z,14.98
2017-12-05T17:47:17.100Z,15.20
2017-12-05T17:49:44.602Z,13.85
2017-12-05T17:52:12.887Z,14.60
2017-12-05T17:54:40.483Z,12.98
2017-12-05T17:57:08.253Z,15.32
2017-12-05T17:59:35.778Z,14.20
2017-12-05T18:02:03.371Z,15.52
2017-12-05T18:04:30.804Z,15.85
2017-12-05T18:06:58.291Z,15.30
2017-12-05T18:09:25.755Z,15.05
2017-12-05T18:11:53.439Z,14.10
2017-12-05T18:14:20.907Z,15.02
2017-12-05T18:16:48.415Z,15.30
2017-12-05T18:19:15.909Z,14.30
2017-12-05T18:21:43.457Z,15.10
2017-12-05T18:24:10.984Z,15.15
2017-12-05T18:26:38.516Z,14.52
2017-12-05T18:29:05.993Z,14.25
2017-12-05T18:31:33.516Z,14.90
2017-12-05T18:34:01.764Z,15.25
2017-12-05T18:36:29.364Z,14.93
2017-12-05T18:38:56.843Z,14.77
2017-12-05T18:41:24.339Z,14.10
2017-12-05T18:43:52.679Z,14.32
2017-12-05T18:46:20.138Z,13.35
2017-12-05T18:48:47.624Z,13.48
2017-12-05T18:51:15.142Z,13.40
2017-12-05T18:53:42.579Z,13.98
2017-12-05T18:56:10.957Z,14.23
2017-12-05T18:58:38.446Z,14.15
2017-12-05T19:01:06.005Z,12.57
2017-12-05T19:03:33.956Z,14.70
2017-12-05T19:06:01.406Z,14.27
2017-12-05T19:08:28.898Z,14.43
2017-12-05T19:10:56.454Z,15.77
2017-12-05T19:13:23.938Z,13.75
2017-12-05T19:15:51.430Z,13.90
2017-12-05T19:18:18.943Z,13.00
2017-12-05T19:20:46.442Z,14.20
2017-12-05T19:23:14.004Z,13.77
2017-12-05T19:25:41.468Z,14.52
2017-12-05T19:28:09.540Z,15.48
2017-12-05T19:30:37.175Z,15.13
2017-12-05T19:33:05.762Z,13.75
2017-12-05T19:35:33.444Z,15.48
2017-12-05T19:38:02.090Z,13.45
2017-12-05T19:40:29.752Z,12.90
2017-12-05T19:42:57.245Z,13.35
2017-12-05T19:45:24.925Z,15.27
2017-12-05T19:47:53.201Z,15.10
2017-12-05T19:50:20.829Z,13.20
2017-12-05T19:52:50.038Z,13.80
2017-12-05T19:55:18.283Z,13.30
2017-12-05T19:57:45.799Z,12.60
2017-12-05T20:00:13.385Z,13.50
2017-12-05T20:02:42.114Z,14.80
2017-12-05T20:05:09.597Z,13.10
2017-12-05T20:07:37.195Z,16.25
2017-12-05T20:10:04.767Z,13.88
2017-12-05T20:12:32.326Z,14.87
2017-12-05T20:14:59.802Z,14.40
2017-12-05T20:17:27.753Z,13.38
2017-12-05T20:19:56.158Z,14.45
2017-12-05T20:22:23.678Z,14.95
2017-12-05T20:24:52.185Z,14.57
2017-12-05T20:27:20.523Z,14.27
2017-12-05T20:29:48.774Z,14.60
2017-12-05T20:32:16.295Z,14.48
2017-12-05T20:34:44.381Z,13.50
2017-12-05T20:37:13.508Z,13.77
2017-12-05T20:39:41.003Z,13.48
2017-12-05T20:42:08.533Z,13.00
2017-12-05T20:44:36.764Z,14.93
2017-12-05T20:47:04.580Z,14.65
2017-12-05T20:49:33.062Z,13.35
2017-12-05T20:52:00.991Z,12.07
2017-12-05T20:54:29.205Z,13.30
2017-12-05T20:56:56.688Z,13.70
2017-12-05T20:59:24.279Z,14.18
2017-12-05T21:01:51.743Z,13.88
2017-12-05T21:04:19.210Z,13.32
2017-12-05T21:06:46.900Z,14.27
2017-12-05T21:09:14.486Z,14.43
2017-12-05T21:11:44.864Z,14.32
2017-12-05T21:14:12.338Z,14.23
2017-12-05T21:16:39.845Z,13.70
2017-12-05T21:19:09.028Z,14.45
2017-12-05T21:21:36.507Z,12.85
2017-12-05T21:24:04.590Z,14.02
2017-12-05T21:26:33.084Z,14.18
2017-12-05T21:29:00.671Z,13.40
2017-12-05T21:31:28.232Z,15.57
2017-12-05T21:33:56.661Z,14.25
2017-12-05T21:36:24.906Z,14.85
2017-12-05T21:38:52.379Z,13.60
2017-12-05T21:41:19.854Z,14.73
2017-12-05T21:43:47.421Z,14.25
2017-12-05T21:46:14.904Z,14.27
2017-12-05T21:48:42.351Z,14.52
2017-12-05T21:51:09.816Z,15.25
2017-12-05T21:53:38.100Z,14.70
2017-12-05T21:56:06.387Z,16.33
2017-12-05T21:58:34.029Z,14.52
2017-12-05T22:01:01.542Z,15.20
2017-12-05T22:03:28.995Z,15.57
2017-12-05T22:05:56.441Z,14.98
2017-12-05T22:08:24.769Z,13.40
2017-12-05T22:10:52.489Z,11.98
2017-12-05T22:13:19.961Z,14.70
2017-12-05T22:15:48.178Z,14.87
2017-12-05T22:18:15.680Z,15.50
2017-12-05T22:20:43.176Z,16.08
2017-12-05T22:23:10.733Z,14.57
2017-12-05T22:25:38.224Z,15.07
2017-12-05T22:28:05.661Z,14.25
2017-12-05T22:30:33.161Z,14.43
2017-12-05T22:33:00.627Z,14.85
2017-12-05T22:35:28.094Z,14.45
2017-12-05T22:37:55.553Z,14.82
2017-12-05T22:40:23.067Z,15.10
2017-12-05T22:42:50.488Z,14.77
2017-12-05T22:45:18.041Z,15.30
2017-12-05T22:47:45.494Z,15.45
2017-12-05T22:50:12.938Z,15.23
2017-12-05T22:52:40.399Z,14.40
2017-12-05T22:55:07.866Z,14.85
2017-12-05T22:57:36.090Z,16.62
2017-12-05T23:00:03.613Z,14.93
2017-12-05T23:02:31.851Z,15.75
2017-12-05T23:05:00.049Z,13.20
2017-12-05T23:07:27.511Z,15.10
2017-12-05T23:09:54.970Z,16.30
2017-12-05T23:12:22.437Z,15.18
2017-12-05T23:14:49.884Z,14.07
2017-12-05T23:17:18.128Z,13.38
2017-12-05T23:19:45.636Z,13.80
2017-12-05T23:22:13.101Z,16.60
2017-12-05T23:24:40.556Z,14.02
2017-12-05T23:27:08.528Z,14.73
2017-12-05T23:29:36.001Z,14.25
2017-12-05T23:32:03.444Z,14.35
2017-12-05T23:34:31.679Z,14.25
2017-12-05T23:36:59.124Z,14.23
2017-12-05T23:39:26.607Z,13.68
2017-12-05T23:41:54.097Z,14.68
2017-12-05T23:44:21.539Z,14.43
2017-12-05T23:46:49.764Z,15.20
2017-12-05T23:49:17.209Z,13.20
2017-12-05T23:51:45.441Z,11.93
2017-12-05T23:54:12.931Z,13.27
2017-12-05T23:56:40.463Z,14.00
2017-12-05T23:59:07.850Z,12.93
